createdAt,value
2018-11-21T00:00:59.672Z,68.87
2018-11-21T00:03:40.624Z,73.22
2018-11-21T00:06:21.750Z,75.00
2018-11-21T00:09:03.112Z,75.17
2018-11-21T00:11:44.432Z,73.90
2018-11-21T00:14:25.417Z,73.02
2018-11-21T00:17:06.506Z,77.78
2018-11-21T00:19:47.750Z,68.92
2018-11-21T00:22:29.066Z,68.75
2018-11-21T00:25:10.865Z,72.45
2018-11-21T00:27:52.573Z,74.07
2018-11-21T00:30:33.737Z,71.65
2018-11-21T00:33:14.506Z,93.00
2018-11-21T00:35:55.966Z,81.00
2018-11-21T00:38:37.695Z,90.70
2018-11-21T00:41:18.815Z,96.65
2018-11-21T00:44:00.472Z,96.17
2018-11-21T00:46:41.905Z,140.03
2018-11-21T00:49:21.776Z,128.85
2018-11-21T00:54:44.236Z,146.68
2018-11-21T00:57:26.460Z,132.37
2018-11-21T01:00:08.042Z,151.53
2018-11-21T01:02:51.207Z,154.10
2018-11-21T01:05:32.433Z,129.47
2018-11-21T01:08:13.802Z,151.82
2018-11-21T01:10:55.437Z,174.30
2018-11-21T01:13:36.439Z,157.45
2018-11-21T01:16:18.132Z,187.32
2018-11-21T01:18:59.519Z,122.47
2018-11-21T01:21:41.924Z,150.82
2018-11-21T01:24:23.142Z,128.20
2018-11-21T01:26:53.148Z,149.15
2018-11-21T01:29:41.893Z,186.55
2018-11-21T01:35:05.917Z,151.50
2018-11-21T01:37:35.988Z,186.18
2018-11-21T01:40:46.418Z,151.35
2018-11-21T01:43:27.303Z,114.95
2018-11-21T01:46:08.730Z,156.90
2018-11-21T01:48:50.166Z,136.88
2018-11-21T01:51:32.163Z,122.20
2018-11-21T01:54:13.156Z,106.85
2018-11-21T01:56:58.929Z,159.00
2018-11-21T01:59:40.135Z,127.12
2018-11-21T02:02:22.757Z,130.70
2018-11-21T02:05:04.683Z,147.68
2018-11-21T02:07:46.387Z,125.75
2018-11-21T02:10:28.473Z,120.30
2018-11-21T02:13:09.853Z,143.05
2018-11-21T02:15:51.106Z,133.60
2018-11-21T02:18:32.211Z,177.17
2018-11-21T02:21:13.763Z,136.55
2018-11-21T02:23:55.401Z,136.47
2018-11-21T02:26:36.331Z,106.00
2018-11-21T02:29:17.597Z,92.78
2018-11-21T02:31:59.236Z,137.62
2018-11-21T02:34:40.171Z,143.20
2018-11-21T02:37:21.635Z,91.02
2018-11-21T02:39:51.669Z,118.42
2018-11-21T02:42:40.544Z,127.92
2018-11-21T02:45:29.386Z,110.35
2018-11-21T02:48:10.174Z,148.97
2018-11-21T02:50:51.767Z,120.90
2018-11-21T02:53:32.883Z,106.17
2018-11-21T02:56:14.283Z,95.90
2018-11-21T02:58:55.989Z,115.42
2018-11-21T03:01:37.590Z,108.85
2018-11-21T03:04:18.946Z,102.97
2018-11-21T03:07:00.629Z,120.25
2018-11-21T03:09:41.969Z,101.07
2018-11-21T03:12:23.565Z,147.53
2018-11-21T03:15:05.121Z,125.85
2018-11-21T03:17:46.818Z,114.08
2018-11-21T03:20:27.835Z,137.35
2018-11-21T03:23:09.039Z,148.20
2018-11-21T03:25:50.034Z,112.77
2018-11-21T03:28:31.791Z,126.42
2018-11-21T03:31:13.447Z,126.62
2018-11-21T03:33:57.831Z,121.37
2018-11-21T03:36:35.906Z,149.23
2018-11-21T03:39:18.453Z,138.10
2018-11-21T03:41:59.710Z,130.95
2018-11-21T03:44:41.366Z,129.32
2018-11-21T03:47:22.230Z,103.12
2018-11-21T03:50:04.519Z,126.47
2018-11-21T03:52:48.159Z,143.60
2018-11-21T03:58:02.285Z,109.83
2018-11-21T04:00:51.387Z,128.27
2018-11-21T04:03:38.319Z,93.33
2018-11-21T04:06:25.009Z,140.97
2018-11-21T04:09:07.122Z,113.47
2018-11-21T04:11:36.922Z,85.17
2018-11-21T04:14:25.661Z,111.92
2018-11-21T04:17:04.457Z,106.55
2018-11-21T04:19:47.558Z,88.35
2018-11-21T04:22:28.824Z,110.48
2018-11-21T04:25:11.279Z,105.25
2018-11-21T04:27:52.460Z,111.50
2018-11-21T04:30:40.698Z,173.97
2018-11-21T04:33:10.876Z,77.95
2018-11-21T04:35:41.305Z,85.60
2018-11-21T04:38:11.592Z,84.50
2018-11-21T04:40:42.012Z,90.67
2018-11-21T04:43:31.046Z,118.50
2018-11-21T04:46:02.462Z,90.53
2018-11-21T04:48:32.721Z,90.03
2018-11-21T04:51:03.149Z,92.57
2018-11-21T04:53:52.262Z,75.35
2018-11-21T04:56:40.950Z,75.15
2018-11-21T04:59:23.317Z,71.37
2018-11-21T05:01:53.129Z,82.65
2018-11-21T05:04:42.091Z,70.47
2018-11-21T05:07:26.099Z,50.67
2018-11-21T05:09:55.888Z,84.25
2018-11-21T05:12:48.885Z,88.62
2018-11-21T05:15:30.103Z,89.62
2018-11-21T05:17:59.913Z,88.85
2018-11-21T05:20:52.633Z,92.45
2018-11-21T05:23:47.747Z,80.57
2018-11-21T05:26:29.289Z,128.40
2018-11-21T05:28:59.067Z,121.82
2018-11-21T05:31:28.796Z,89.40
2018-11-21T05:34:17.581Z,121.80
2018-11-21T05:37:06.312Z,113.88
2018-11-21T05:39:50.278Z,103.15
2018-11-21T05:42:20.527Z,139.57
2018-11-21T05:45:10.279Z,116.47
2018-11-21T05:47:59.208Z,101.50
2018-11-21T05:50:40.908Z,133.12
2018-11-21T05:53:22.416Z,131.22
2018-11-21T05:59:40.867Z,123.47
2018-11-21T06:02:21.492Z,132.18
2018-11-21T06:05:03.727Z,114.35
2018-11-21T06:07:53.744Z,106.10
2018-11-21T06:10:22.406Z,90.77
2018-11-21T06:13:11.501Z,111.40
2018-11-21T06:15:40.780Z,107.80
2018-11-21T06:20:38.585Z,86.10
2018-11-21T06:23:07.182Z,106.90
2018-11-21T06:25:35.717Z,92.50
2018-11-21T06:28:04.287Z,82.25
2018-11-21T06:30:32.854Z,81.80
2018-11-21T06:33:01.377Z,121.90
2018-11-21T06:35:29.955Z,108.92
2018-11-21T06:38:00.089Z,87.30
2018-11-21T06:40:28.663Z,93.78
2018-11-21T06:42:58.404Z,98.92
2018-11-21T06:45:27.831Z,94.30
2018-11-21T06:47:56.474Z,96.47
2018-11-21T06:50:25.133Z,86.63
2018-11-21T06:52:54.754Z,118.70
2018-11-21T06:55:23.276Z,107.15
2018-11-21T06:57:51.921Z,94.42
2018-11-21T07:00:20.436Z,102.27
2018-11-21T07:02:49.012Z,95.15
2018-11-21T07:05:17.561Z,96.30
2018-11-21T07:07:46.121Z,102.45
2018-11-21T07:10:15.463Z,95.05
2018-11-21T07:12:44.729Z,106.85
2018-11-21T07:15:13.304Z,116.97
2018-11-21T07:17:41.859Z,98.22
2018-11-21T07:20:12.008Z,134.10
2018-11-21T07:22:41.783Z,98.42
2018-11-21T07:25:12.176Z,115.60
2018-11-21T07:27:40.774Z,101.60
2018-11-21T07:30:11.606Z,77.55
2018-11-21T07:32:40.178Z,71.07
2018-11-21T07:35:08.960Z,69.58
2018-11-21T07:37:38.029Z,63.90
2018-11-21T07:40:08.531Z,94.62
2018-11-21T07:42:37.073Z,81.82
2018-11-21T07:45:07.669Z,88.80
2018-11-21T07:47:36.202Z,86.65
2018-11-21T07:50:07.201Z,92.02
2018-11-21T07:52:35.782Z,73.78
2018-11-21T07:55:04.511Z,101.58
2018-11-21T07:57:34.697Z,62.83
2018-11-21T08:00:41.942Z,72.20
2018-11-21T08:03:10.531Z,76.65
2018-11-21T08:05:44.290Z,69.15
2018-11-21T08:08:43.014Z,72.30
2018-11-21T08:11:36.669Z,64.15
2018-11-21T08:14:33.209Z,59.35
2018-11-21T08:17:32.521Z,53.73
2018-11-21T08:20:26.137Z,69.05
2018-11-21T08:23:12.506Z,68.60
2018-11-21T08:26:05.817Z,69.15
2018-11-21T08:28:34.349Z,77.20
2018-11-21T08:31:02.933Z,72.00
2018-11-21T08:33:34.006Z,58.05
2018-11-21T08:36:00.504Z,57.93
2018-11-21T08:38:29.040Z,67.82
2018-11-21T08:40:57.582Z,69.32
2018-11-21T08:43:26.164Z,60.15
2018-11-21T08:45:54.694Z,74.27
2018-11-21T08:48:23.523Z,55.08
2018-11-21T08:50:52.148Z,56.30
2018-11-21T08:53:20.688Z,61.90
2018-11-21T08:55:49.271Z,68.92
2018-11-21T08:58:17.828Z,48.10
2018-11-21T09:00:47.080Z,71.97
2018-11-21T09:03:15.614Z,56.23
2018-11-21T09:05:44.188Z,57.90
2018-11-21T09:08:12.717Z,62.08
2018-11-21T09:10:41.301Z,48.30
2018-11-21T09:13:09.860Z,51.70
2018-11-21T09:15:38.457Z,52.27
2018-11-21T09:18:06.992Z,51.58
2018-11-21T09:20:35.561Z,43.98
2018-11-21T09:23:04.132Z,44.05
2018-11-21T09:25:32.763Z,42.48
2018-11-21T09:28:01.337Z,64.45
2018-11-21T09:30:29.921Z,48.40
2018-11-21T09:32:59.069Z,45.05
2018-11-21T09:35:27.660Z,39.90
2018-11-21T09:37:56.248Z,37.33
2018-11-21T09:40:24.920Z,35.70
2018-11-21T09:42:54.814Z,41.23
2018-11-21T09:45:23.968Z,35.60
2018-11-21T09:47:52.505Z,40.10
2018-11-21T09:50:25.645Z,43.50
2018-11-21T09:52:54.278Z,40.52
2018-11-21T09:55:22.810Z,41.92
2018-11-21T09:57:51.407Z,44.58
2018-11-21T10:00:55.995Z,40.43
2018-11-21T10:03:29.634Z,34.10
2018-11-21T10:06:00.759Z,40.12
2018-11-21T10:08:57.793Z,39.85
2018-11-21T10:11:26.375Z,50.33
2018-11-21T10:13:54.897Z,39.50
2018-11-21T10:16:23.502Z,37.83
2018-11-21T10:18:53.710Z,42.40
2018-11-21T10:21:23.910Z,37.28
2018-11-21T10:23:52.440Z,42.15
2018-11-21T10:26:20.979Z,49.45
2018-11-21T10:28:50.335Z,39.58
2018-11-21T10:31:18.878Z,48.58
2018-11-21T10:33:47.532Z,44.60
2018-11-21T10:36:16.112Z,64.30
2018-11-21T10:38:44.656Z,96.80
2018-11-21T10:41:13.308Z,112.10
2018-11-21T10:43:41.856Z,51.08
2018-11-21T10:46:10.534Z,165.52
2018-11-21T10:48:39.140Z,40.03
2018-11-21T10:51:07.662Z,45.15
2018-11-21T10:53:36.175Z,33.35
2018-11-21T10:56:05.135Z,43.63
2018-11-21T10:58:33.638Z,36.48
2018-11-21T11:01:22.848Z,41.58
2018-11-21T11:04:03.365Z,36.88
2018-11-21T11:07:02.741Z,42.45
2018-11-21T11:09:48.727Z,37.73
2018-11-21T11:12:34.672Z,36.05
2018-11-21T11:15:31.175Z,58.55
2018-11-21T11:18:24.623Z,45.08
2018-11-21T11:21:11.690Z,41.88
2018-11-21T11:23:56.932Z,50.33
2018-11-21T11:26:42.927Z,45.92
2018-11-21T11:29:29.081Z,38.78
2018-11-21T11:32:34.784Z,46.98
2018-11-21T11:35:28.452Z,40.00
2018-11-21T11:38:16.134Z,38.35
2018-11-21T11:41:06.323Z,41.00
2018-11-21T11:44:05.284Z,40.10
2018-11-21T11:46:52.979Z,47.80
2018-11-21T11:49:49.304Z,41.75
2018-11-21T11:52:54.954Z,47.25
2018-11-21T11:55:41.170Z,47.20
2018-11-21T11:58:31.504Z,52.80
2018-11-21T12:01:11.974Z,44.70
2018-11-21T12:03:59.620Z,45.48
2018-11-21T12:06:57.527Z,40.98
2018-11-21T12:09:43.552Z,39.78
2018-11-21T12:12:31.225Z,46.90
2018-11-21T12:15:25.425Z,41.92
2018-11-21T12:18:15.922Z,40.00
2018-11-21T12:21:09.488Z,42.10
2018-11-21T12:24:15.127Z,47.58
2018-11-21T12:27:14.827Z,34.30
2018-11-21T12:30:02.447Z,40.00
2018-11-21T12:32:50.228Z,46.58
2018-11-21T12:35:43.681Z,43.70
2018-11-21T12:38:25.054Z,45.45
2018-11-21T12:41:21.552Z,40.10
2018-11-21T12:44:11.758Z,54.73
2018-11-21T12:47:05.282Z,39.98
2018-11-21T12:49:58.619Z,42.50
2018-11-21T12:52:45.271Z,43.08
2018-11-21T12:55:31.228Z,46.35
2018-11-21T12:58:24.785Z,46.53
2018-11-21T13:01:12.497Z,45.05
2018-11-21T13:04:02.953Z,46.50
2018-11-21T13:07:02.393Z,43.15
2018-11-21T13:09:48.513Z,38.88
2018-11-21T13:12:50.994Z,46.88
2018-11-21T13:15:43.502Z,44.10
2018-11-21T13:18:38.698Z,43.80
2018-11-21T13:21:26.336Z,42.85
2018-11-21T13:24:12.453Z,45.90
2018-11-21T13:26:58.352Z,32.60
2018-11-21T13:29:51.687Z,40.00
2018-11-21T13:32:37.783Z,42.85
2018-11-21T13:35:24.459Z,51.25
2018-11-21T13:38:27.372Z,47.00
2018-11-21T13:41:12.036Z,38.65
2018-11-21T13:44:18.164Z,42.62
2018-11-21T13:47:11.603Z,60.98
2018-11-21T13:49:58.241Z,53.83
2018-11-21T13:52:50.222Z,49.60
2018-11-21T13:55:19.190Z,45.80
2018-11-21T13:57:47.963Z,50.55
2018-11-21T14:00:16.729Z,44.85
2018-11-21T14:02:46.314Z,49.73
2018-11-21T14:05:15.135Z,54.18
2018-11-21T14:07:44.168Z,52.30
2018-11-21T14:10:13.370Z,43.23
2018-11-21T14:12:42.319Z,45.98
2018-11-21T14:15:11.043Z,53.52
2018-11-21T14:17:39.829Z,57.27
2018-11-21T14:20:11.373Z,54.20
2018-11-21T14:22:40.731Z,48.28
2018-11-21T14:25:11.144Z,45.90
2018-11-21T14:27:40.031Z,43.48
2018-11-21T14:30:13.755Z,52.48
2018-11-21T14:32:43.466Z,75.03
2018-11-21T14:35:13.927Z,59.40
2018-11-21T14:37:43.255Z,58.83
2018-11-21T14:40:14.676Z,64.72
2018-11-21T14:42:43.563Z,67.55
2018-11-21T14:45:17.594Z,76.65
2018-11-21T14:47:48.348Z,62.70
2018-11-21T14:50:19.932Z,62.70
2018-11-21T14:52:49.533Z,62.45
2018-11-21T14:55:18.176Z,100.12
2018-11-21T14:57:49.932Z,70.95
2018-11-21T15:00:19.779Z,66.02
2018-11-21T15:02:48.631Z,72.82
2018-11-21T15:05:17.545Z,66.12
2018-11-21T15:07:46.962Z,81.28
2018-11-21T15:10:15.683Z,57.65
2018-11-21T15:12:44.301Z,57.08
2018-11-21T15:15:15.145Z,56.95
2018-11-21T15:17:43.852Z,58.75
2018-11-21T15:20:14.401Z,59.10
2018-11-21T15:22:53.907Z,57.53
2018-11-21T15:25:24.638Z,62.73
2018-11-21T15:27:53.267Z,53.23
2018-11-21T15:30:23.547Z,59.13
2018-11-21T15:32:52.140Z,60.35
2018-11-21T15:35:20.993Z,66.80
2018-11-21T15:37:49.878Z,44.15
2018-11-21T15:40:22.412Z,50.78
2018-11-21T15:42:52.680Z,42.85
2018-11-21T15:45:22.632Z,58.17
2018-11-21T15:47:55.797Z,54.38
2018-11-21T15:50:24.509Z,52.90
2018-11-21T15:52:53.276Z,65.42
2018-11-21T15:55:21.758Z,63.17
2018-11-21T15:57:50.311Z,56.05
2018-11-21T16:00:21.300Z,39.73
2018-11-21T16:02:51.104Z,70.25
2018-11-21T16:05:20.254Z,47.80
2018-11-21T16:07:51.908Z,44.25
2018-11-21T16:10:22.202Z,42.78
2018-11-21T16:12:50.907Z,43.15
2018-11-21T16:15:22.699Z,48.95
2018-11-21T16:17:51.623Z,55.88
2018-11-21T16:20:20.349Z,41.68
2018-11-21T16:22:48.963Z,45.58
2018-11-21T16:25:18.932Z,41.98
2018-11-21T16:27:47.582Z,35.88
2018-11-21T16:30:21.018Z,44.85
2018-11-21T16:32:49.631Z,54.25
2018-11-21T16:35:18.201Z,45.38
2018-11-21T16:37:46.818Z,41.92
2018-11-21T16:40:17.389Z,51.45
2018-11-21T16:42:46.233Z,57.15
2018-11-21T16:45:16.718Z,76.57
2018-11-21T16:47:45.293Z,63.35
2018-11-21T16:50:15.281Z,45.38
2018-11-21T16:52:43.852Z,58.95
2018-11-21T16:55:14.216Z,50.45
2018-11-21T16:57:43.165Z,56.80
2018-11-21T17:00:14.298Z,50.00
2018-11-21T17:02:42.872Z,46.68
2018-11-21T17:05:12.956Z,55.28
2018-11-21T17:07:41.900Z,46.08
2018-11-21T17:10:12.530Z,49.90
2018-11-21T17:12:41.515Z,45.28
2018-11-21T17:15:12.192Z,52.70
2018-11-21T17:17:41.066Z,44.75
2018-11-21T17:20:12.374Z,48.00
2018-11-21T17:22:41.036Z,46.90
2018-11-21T17:25:12.343Z,51.50
2018-11-21T17:27:41.193Z,46.77
2018-11-21T17:30:11.794Z,38.02
2018-11-21T17:32:40.423Z,51.20
2018-11-21T17:35:10.725Z,41.40
2018-11-21T17:37:39.437Z,47.62
2018-11-21T17:40:20.232Z,45.60
2018-11-21T17:42:48.851Z,54.33
2018-11-21T17:45:18.491Z,45.20
2018-11-21T17:47:47.171Z,47.20
2018-11-21T17:50:17.311Z,45.85
2018-11-21T17:52:46.397Z,45.23
2018-11-21T17:55:19.334Z,47.45
2018-11-21T17:57:48.271Z,48.45
2018-11-21T18:00:19.265Z,45.43
2018-11-21T18:02:48.192Z,47.05
2018-11-21T18:05:19.029Z,46.70
2018-11-21T18:07:48.350Z,44.67
2018-11-21T18:10:18.626Z,38.88
2018-11-21T18:12:47.615Z,53.63
2018-11-21T18:15:16.818Z,45.67
2018-11-21T18:17:46.503Z,41.35
2018-11-21T18:20:15.838Z,51.88
2018-11-21T18:22:45.197Z,40.60
2018-11-21T18:25:15.877Z,55.58
2018-11-21T18:27:44.904Z,53.25
2018-11-21T18:30:15.774Z,49.75
2018-11-21T18:32:44.961Z,48.38
2018-11-21T18:35:15.431Z,50.20
2018-11-21T18:37:45.013Z,43.58
2018-11-21T18:40:18.722Z,46.42
2018-11-21T18:42:48.993Z,39.70
2018-11-21T18:45:19.999Z,41.00
2018-11-21T18:47:48.812Z,43.55
2018-11-21T18:50:18.458Z,52.93
2018-11-21T18:52:47.722Z,55.38
2018-11-21T18:55:18.931Z,45.50
2018-11-21T18:58:23.138Z,44.35
2018-11-21T19:00:53.333Z,38.28
2018-11-21T19:03:21.920Z,38.58
2018-11-21T19:05:50.485Z,33.75
2018-11-21T19:08:19.089Z,39.40
2018-11-21T19:10:47.810Z,36.33
2018-11-21T19:13:16.452Z,42.70
2018-11-21T19:15:45.052Z,40.67
2018-11-21T19:18:13.682Z,46.88
2018-11-21T19:20:42.327Z,56.95
2018-11-21T19:23:10.903Z,63.05
2018-11-21T19:25:39.532Z,45.43
2018-11-21T19:28:08.128Z,48.87
2018-11-21T19:30:36.757Z,45.25
2018-11-21T19:33:05.604Z,49.27
2018-11-21T19:35:34.213Z,41.80
2018-11-21T19:38:02.863Z,48.85
2018-11-21T19:40:31.472Z,48.65
2018-11-21T19:43:00.003Z,54.08
2018-11-21T19:45:28.640Z,41.00
2018-11-21T19:47:57.249Z,41.75
2018-11-21T19:50:25.887Z,49.73
2018-11-21T19:52:54.598Z,45.23
2018-11-21T19:55:24.996Z,49.88
2018-11-21T19:57:53.601Z,48.87
2018-11-21T20:00:26.578Z,46.53
2018-11-21T20:02:55.158Z,42.48
2018-11-21T20:05:23.726Z,51.40
2018-11-21T20:07:52.899Z,44.73
2018-11-21T20:10:22.274Z,46.00
2018-11-21T20:12:50.841Z,42.50
2018-11-21T20:15:23.483Z,47.17
2018-11-21T20:17:53.686Z,53.35
2018-11-21T20:20:22.819Z,40.40
2018-11-21T20:22:51.728Z,44.42
2018-11-21T20:25:21.252Z,41.95
2018-11-21T20:27:49.902Z,46.02
2018-11-21T20:30:23.110Z,49.53
2018-11-21T20:32:51.730Z,41.13
2018-11-21T20:35:20.321Z,44.75
2018-11-21T20:37:49.002Z,43.38
2018-11-21T20:40:25.347Z,50.75
2018-11-21T20:42:54.208Z,49.38
2018-11-21T20:45:24.020Z,44.58
2018-11-21T20:47:53.627Z,49.77
2018-11-21T20:50:22.242Z,43.60
2018-11-21T20:52:51.056Z,44.45
2018-11-21T20:55:21.224Z,44.90
2018-11-21T20:57:49.938Z,45.03
2018-11-21T21:00:22.462Z,46.23
2018-11-21T21:02:51.151Z,46.60
2018-11-21T21:05:21.146Z,47.33
2018-11-21T21:07:49.934Z,46.60
2018-11-21T21:10:20.001Z,44.33
2018-11-21T21:13:22.511Z,41.73
2018-11-21T21:15:51.134Z,44.10
2018-11-21T21:18:19.727Z,53.45
2018-11-21T21:20:48.297Z,47.05
2018-11-21T21:23:16.998Z,41.65
2018-11-21T21:25:45.606Z,52.03
2018-11-21T21:28:14.368Z,51.37
2018-11-21T21:30:42.994Z,46.70
2018-11-21T21:33:11.619Z,41.20
2018-11-21T21:35:40.235Z,45.92
2018-11-21T21:38:08.835Z,43.40
2018-11-21T21:40:37.461Z,40.78
2018-11-21T21:43:06.430Z,40.35
2018-11-21T21:45:35.111Z,35.48
2018-11-21T21:48:03.768Z,49.50
2018-11-21T21:50:33.578Z,40.30
2018-11-21T21:53:02.241Z,41.05
2018-11-21T21:55:31.719Z,39.42
2018-11-21T21:58:01.480Z,36.25
2018-11-21T22:00:30.338Z,40.95
2018-11-21T22:02:59.818Z,46.75
2018-11-21T22:05:28.422Z,43.73
2018-11-21T22:07:57.108Z,47.13
2018-11-21T22:10:25.756Z,42.73
2018-11-21T22:12:54.338Z,37.30
2018-11-21T22:15:30.065Z,45.60
2018-11-21T22:18:23.347Z,43.20
2018-11-21T22:20:51.866Z,44.30
2018-11-21T22:23:20.510Z,43.60
2018-11-21T22:25:49.954Z,46.65
2018-11-21T22:28:18.596Z,38.67
2018-11-21T22:30:47.212Z,46.25
2018-11-21T22:33:15.859Z,38.42
2018-11-21T22:35:44.564Z,42.08
2018-11-21T22:38:13.226Z,42.50
2018-11-21T22:40:41.756Z,39.10
2018-11-21T22:43:10.364Z,43.63
2018-11-21T22:45:38.926Z,36.90
2018-11-21T22:48:07.504Z,44.27
2018-11-21T22:50:36.114Z,42.65
2018-11-21T22:53:04.696Z,40.48
2018-11-21T22:55:33.321Z,41.45
2018-11-21T22:58:01.860Z,40.88
2018-11-21T23:00:40.732Z,45.12
2018-11-21T23:03:10.031Z,44.23
2018-11-21T23:05:38.908Z,42.67
2018-11-21T23:08:07.706Z,48.10
2018-11-21T23:10:36.324Z,44.45
2018-11-21T23:13:05.061Z,42.90
2018-11-21T23:15:33.587Z,40.17
2018-11-21T23:18:02.229Z,44.10
2018-11-21T23:20:30.851Z,47.10
2018-11-21T23:22:59.380Z,38.30
2018-11-21T23:25:27.991Z,40.90
2018-11-21T23:27:56.573Z,43.33
2018-11-21T23:30:25.133Z,43.65
2018-11-21T23:32:53.811Z,41.00
2018-11-21T23:35:22.415Z,40.48
2018-11-21T23:37:51.004Z,41.60
2018-11-21T23:40:19.609Z,37.05
2018-11-21T23:42:49.793Z,40.85
2018-11-21T23:45:18.539Z,43.30
2018-11-21T23:47:47.163Z,43.63
2018-11-21T23:50:16.851Z,36.65
2018-11-21T23:52:45.460Z,47.40
2018-11-21T23:55:16.295Z,41.63
2018-11-21T23:57:45.213Z,40.65
